sensor_id;sensor_type;location;lat;lon;timestamp;P1;durP1;ratioP1;P2;durP2;ratioP2
65156;SDS011;52745;49.794;18.258;2023-01-19T00:00:27;41.80;;;18.35;;
65156;SDS011;52745;49.794;18.258;2023-01-19T00:03:14;42.30;;;18.77;;
65156;SDS011;52745;49.794;18.258;2023-01-19T00:05:45;44.67;;;18.98;;
65156;SDS011;52745;49.794;18.258;2023-01-19T00:08:12;51.65;;;19.95;;
65156;SDS011;52745;49.794;18.258;2023-01-19T00:10:42;54.30;;;21.05;;
65156;SDS011;52745;49.794;18.258;2023-01-19T00:13:10;46.92;;;20.88;;
65156;SDS011;52745;49.794;18.258;2023-01-19T00:15:37;45.10;;;19.27;;
65156;SDS011;52745;49.794;18.258;2023-01-19T00:18:04;51.00;;;22.50;;
65156;SDS011;52745;49.794;18.258;2023-01-19T00:20:31;49.60;;;21.83;;
65156;SDS011;52745;49.794;18.258;2023-01-19T00:23:01;45.90;;;19.95;;
65156;SDS011;52745;49.794;18.258;2023-01-19T00:25:29;44.85;;;19.95;;
65156;SDS011;52745;49.794;18.258;2023-01-19T00:27:56;43.63;;;20.80;;
65156;SDS011;52745;49.794;18.258;2023-01-19T00:30:24;50.90;;;21.02;;
65156;SDS011;52745;49.794;18.258;2023-01-19T00:32:51;48.47;;;20.95;;
65156;SDS011;52745;49.794;18.258;2023-01-19T00:35:17;44.30;;;19.48;;
65156;SDS011;52745;49.794;18.258;2023-01-19T00:37:45;40.13;;;17.08;;
65156;SDS011;52745;49.794;18.258;2023-01-19T00:40:12;36.30;;;17.20;;
65156;SDS011;52745;49.794;18.258;2023-01-19T00:42:39;45.78;;;17.73;;
65156;SDS011;52745;49.794;18.258;2023-01-19T00:45:07;47.75;;;18.15;;
65156;SDS011;52745;49.794;18.258;2023-01-19T00:47:35;38.22;;;16.75;;
65156;SDS011;52745;49.794;18.258;2023-01-19T00:50:02;39.88;;;18.05;;
65156;SDS011;52745;49.794;18.258;2023-01-19T00:52:29;37.45;;;16.45;;
65156;SDS011;52745;49.794;18.258;2023-01-19T00:54:56;37.28;;;16.88;;
65156;SDS011;52745;49.794;18.258;2023-01-19T00:57:23;32.85;;;16.27;;
65156;SDS011;52745;49.794;18.258;2023-01-19T00:59:49;37.75;;;17.40;;
65156;SDS011;52745;49.794;18.258;2023-01-19T01:02:16;34.33;;;15.80;;
65156;SDS011;52745;49.794;18.258;2023-01-19T01:04:43;32.55;;;16.02;;
65156;SDS011;52745;49.794;18.258;2023-01-19T01:07:10;38.75;;;16.98;;
65156;SDS011;52745;49.794;18.258;2023-01-19T01:09:36;39.20;;;16.38;;
65156;SDS011;52745;49.794;18.258;2023-01-19T01:12:03;48.97;;;19.42;;
65156;SDS011;52745;49.794;18.258;2023-01-19T01:14:30;51.20;;;18.77;;
65156;SDS011;52745;49.794;18.258;2023-01-19T01:16:57;49.28;;;17.83;;
65156;SDS011;52745;49.794;18.258;2023-01-19T01:19:24;44.95;;;18.35;;
65156;SDS011;52745;49.794;18.258;2023-01-19T01:21:51;52.28;;;20.55;;
65156;SDS011;52745;49.794;18.258;2023-01-19T01:24:18;47.75;;;17.83;;
65156;SDS011;52745;49.794;18.258;2023-01-19T01:26:46;39.63;;;16.83;;
65156;SDS011;52745;49.794;18.258;2023-01-19T01:29:12;39.65;;;17.25;;
65156;SDS011;52745;49.794;18.258;2023-01-19T01:31:39;34.78;;;16.45;;
65156;SDS011;52745;49.794;18.258;2023-01-19T01:34:06;33.90;;;16.77;;
65156;SDS011;52745;49.794;18.258;2023-01-19T01:36:34;39.70;;;18.60;;
65156;SDS011;52745;49.794;18.258;2023-01-19T01:39:01;39.80;;;17.98;;
65156;SDS011;52745;49.794;18.258;2023-01-19T01:41:28;37.97;;;18.38;;
65156;SDS011;52745;49.794;18.258;2023-01-19T01:43:55;49.40;;;18.98;;
65156;SDS011;52745;49.794;18.258;2023-01-19T01:46:28;37.17;;;17.60;;
65156;SDS011;52745;49.794;18.258;2023-01-19T01:49:01;40.60;;;17.85;;
65156;SDS011;52745;49.794;18.258;2023-01-19T01:51:32;36.72;;;17.40;;
65156;SDS011;52745;49.794;18.258;2023-01-19T01:54:36;36.03;;;17.85;;
65156;SDS011;52745;49.794;18.258;2023-01-19T01:56:59;35.33;;;17.83;;
65156;SDS011;52745;49.794;18.258;2023-01-19T01:59:34;38.75;;;16.77;;
65156;SDS011;52745;49.794;18.258;2023-01-19T02:02:06;40.03;;;17.13;;
65156;SDS011;52745;49.794;18.258;2023-01-19T02:04:57;40.83;;;18.52;;
65156;SDS011;52745;49.794;18.258;2023-01-19T02:07:35;43.65;;;17.70;;
65156;SDS011;52745;49.794;18.258;2023-01-19T02:10:30;41.67;;;17.00;;
65156;SDS011;52745;49.794;18.258;2023-01-19T02:13:17;36.00;;;15.98;;
65156;SDS011;52745;49.794;18.258;2023-01-19T02:15:47;35.28;;;16.95;;
65156;SDS011;52745;49.794;18.258;2023-01-19T02:18:17;34.28;;;16.30;;
65156;SDS011;52745;49.794;18.258;2023-01-19T02:20:48;34.67;;;16.27;;
65156;SDS011;52745;49.794;18.258;2023-01-19T02:23:55;35.85;;;15.95;;
65156;SDS011;52745;49.794;18.258;2023-01-19T02:26:36;32.53;;;15.27;;
65156;SDS011;52745;49.794;18.258;2023-01-19T02:31:59;31.92;;;14.35;;
65156;SDS011;52745;49.794;18.258;2023-01-19T02:34:27;30.15;;;15.30;;
65156;SDS011;52745;49.794;18.258;2023-01-19T02:36:55;32.53;;;14.50;;
65156;SDS011;52745;49.794;18.258;2023-01-19T02:39:28;31.17;;;14.27;;
65156;SDS011;52745;49.794;18.258;2023-01-19T02:41:59;28.95;;;14.60;;
65156;SDS011;52745;49.794;18.258;2023-01-19T02:44:29;25.65;;;13.57;;
65156;SDS011;52745;49.794;18.258;2023-01-19T02:46:58;27.02;;;14.70;;
65156;SDS011;52745;49.794;18.258;2023-01-19T02:49:27;28.20;;;13.43;;
65156;SDS011;52745;49.794;18.258;2023-01-19T02:51:57;29.88;;;14.05;;
65156;SDS011;52745;49.794;18.258;2023-01-19T02:54:39;29.10;;;14.77;;
65156;SDS011;52745;49.794;18.258;2023-01-19T02:57:54;29.08;;;15.13;;
65156;SDS011;52745;49.794;18.258;2023-01-19T03:00:57;28.70;;;15.15;;
65156;SDS011;52745;49.794;18.258;2023-01-19T03:05:51;26.27;;;14.98;;
65156;SDS011;52745;49.794;18.258;2023-01-19T03:08:42;29.92;;;15.30;;
65156;SDS011;52745;49.794;18.258;2023-01-19T03:11:16;31.35;;;17.35;;
65156;SDS011;52745;49.794;18.258;2023-01-19T03:16:33;70.18;;;34.80;;
65156;SDS011;52745;49.794;18.258;2023-01-19T03:19:07;43.58;;;21.83;;
65156;SDS011;52745;49.794;18.258;2023-01-19T03:21:38;33.43;;;16.97;;
65156;SDS011;52745;49.794;18.258;2023-01-19T03:24:10;37.45;;;19.83;;
65156;SDS011;52745;49.794;18.258;2023-01-19T03:26:40;32.50;;;17.60;;
65156;SDS011;52745;49.794;18.258;2023-01-19T03:29:11;33.70;;;18.40;;
65156;SDS011;52745;49.794;18.258;2023-01-19T03:31:42;43.97;;;21.92;;
65156;SDS011;52745;49.794;18.258;2023-01-19T03:34:11;32.33;;;17.95;;
65156;SDS011;52745;49.794;18.258;2023-01-19T03:36:44;37.47;;;17.65;;
65156;SDS011;52745;49.794;18.258;2023-01-19T03:39:20;31.88;;;16.65;;
65156;SDS011;52745;49.794;18.258;2023-01-19T03:41:51;31.33;;;17.45;;
65156;SDS011;52745;49.794;18.258;2023-01-19T03:44:22;36.15;;;17.00;;
65156;SDS011;52745;49.794;18.258;2023-01-19T03:46:51;35.30;;;18.17;;
65156;SDS011;52745;49.794;18.258;2023-01-19T03:49:18;35.60;;;17.98;;
65156;SDS011;52745;49.794;18.258;2023-01-19T03:51:45;32.92;;;18.48;;
65156;SDS011;52745;49.794;18.258;2023-01-19T03:54:12;33.45;;;18.90;;
65156;SDS011;52745;49.794;18.258;2023-01-19T03:56:39;37.78;;;18.90;;
65156;SDS011;52745;49.794;18.258;2023-01-19T03:59:07;35.17;;;18.10;;
65156;SDS011;52745;49.794;18.258;2023-01-19T04:01:34;31.67;;;17.80;;
65156;SDS011;52745;49.794;18.258;2023-01-19T04:04:00;33.58;;;18.30;;
65156;SDS011;52745;49.794;18.258;2023-01-19T04:06:27;34.25;;;16.95;;
65156;SDS011;52745;49.794;18.258;2023-01-19T04:08:54;32.60;;;17.90;;
65156;SDS011;52745;49.794;18.258;2023-01-19T04:11:21;34.90;;;17.20;;
65156;SDS011;52745;49.794;18.258;2023-01-19T04:13:48;33.05;;;17.23;;
65156;SDS011;52745;49.794;18.258;2023-01-19T04:16:15;28.83;;;16.98;;
65156;SDS011;52745;49.794;18.258;2023-01-19T04:18:45;30.58;;;16.52;;
65156;SDS011;52745;49.794;18.258;2023-01-19T04:21:12;32.88;;;17.63;;
65156;SDS011;52745;49.794;18.258;2023-01-19T04:23:39;30.55;;;16.65;;
65156;SDS011;52745;49.794;18.258;2023-01-19T04:26:06;29.48;;;16.38;;
65156;SDS011;52745;49.794;18.258;2023-01-19T04:28:34;28.48;;;15.98;;
65156;SDS011;52745;49.794;18.258;2023-01-19T04:31:03;27.65;;;15.75;;
65156;SDS011;52745;49.794;18.258;2023-01-19T04:33:30;30.52;;;15.85;;
65156;SDS011;52745;49.794;18.258;2023-01-19T04:35:58;26.33;;;14.30;;
65156;SDS011;52745;49.794;18.258;2023-01-19T04:38:25;28.73;;;15.82;;
65156;SDS011;52745;49.794;18.258;2023-01-19T04:40:53;26.55;;;14.63;;
65156;SDS011;52745;49.794;18.258;2023-01-19T04:43:20;26.00;;;14.55;;
65156;SDS011;52745;49.794;18.258;2023-01-19T04:45:48;26.00;;;14.70;;
65156;SDS011;52745;49.794;18.258;2023-01-19T04:48:15;26.33;;;14.80;;
65156;SDS011;52745;49.794;18.258;2023-01-19T04:50:44;28.00;;;15.30;;
65156;SDS011;52745;49.794;18.258;2023-01-19T04:53:10;25.48;;;14.10;;
65156;SDS011;52745;49.794;18.258;2023-01-19T04:55:39;27.83;;;14.35;;
65156;SDS011;52745;49.794;18.258;2023-01-19T04:58:05;25.52;;;15.00;;
65156;SDS011;52745;49.794;18.258;2023-01-19T05:00:32;26.77;;;14.90;;
65156;SDS011;52745;49.794;18.258;2023-01-19T05:02:59;24.58;;;14.50;;
65156;SDS011;52745;49.794;18.258;2023-01-19T05:05:26;93.80;;;48.63;;
65156;SDS011;52745;49.794;18.258;2023-01-19T05:07:53;31.63;;;16.70;;
65156;SDS011;52745;49.794;18.258;2023-01-19T05:10:20;23.63;;;14.75;;
65156;SDS011;52745;49.794;18.258;2023-01-19T05:12:47;26.38;;;14.73;;
65156;SDS011;52745;49.794;18.258;2023-01-19T05:15:14;24.52;;;13.65;;
65156;SDS011;52745;49.794;18.258;2023-01-19T05:17:40;25.65;;;14.23;;
65156;SDS011;52745;49.794;18.258;2023-01-19T05:20:10;28.88;;;14.95;;
65156;SDS011;52745;49.794;18.258;2023-01-19T05:22:38;26.17;;;15.10;;
65156;SDS011;52745;49.794;18.258;2023-01-19T05:25:06;27.63;;;15.93;;
65156;SDS011;52745;49.794;18.258;2023-01-19T05:27:36;29.30;;;15.40;;
65156;SDS011;52745;49.794;18.258;2023-01-19T05:30:04;87.05;;;45.53;;
65156;SDS011;52745;49.794;18.258;2023-01-19T05:32:31;44.67;;;23.98;;
65156;SDS011;52745;49.794;18.258;2023-01-19T05:34:58;30.55;;;15.50;;
65156;SDS011;52745;49.794;18.258;2023-01-19T05:37:25;27.40;;;14.90;;
65156;SDS011;52745;49.794;18.258;2023-01-19T05:39:52;25.90;;;14.52;;
65156;SDS011;52745;49.794;18.258;2023-01-19T05:42:19;27.67;;;14.43;;
65156;SDS011;52745;49.794;18.258;2023-01-19T05:44:46;32.78;;;15.00;;
65156;SDS011;52745;49.794;18.258;2023-01-19T05:47:13;25.13;;;14.70;;
65156;SDS011;52745;49.794;18.258;2023-01-19T05:49:40;29.70;;;14.63;;
65156;SDS011;52745;49.794;18.258;2023-01-19T05:52:07;26.48;;;15.00;;
65156;SDS011;52745;49.794;18.258;2023-01-19T05:54:34;26.20;;;15.55;;
65156;SDS011;52745;49.794;18.258;2023-01-19T05:57:00;28.33;;;15.02;;
65156;SDS011;52745;49.794;18.258;2023-01-19T05:59:28;31.13;;;16.17;;
65156;SDS011;52745;49.794;18.258;2023-01-19T06:01:55;52.05;;;26.48;;
65156;SDS011;52745;49.794;18.258;2023-01-19T06:04:22;24.70;;;14.30;;
65156;SDS011;52745;49.794;18.258;2023-01-19T06:06:49;26.23;;;14.65;;
65156;SDS011;52745;49.794;18.258;2023-01-19T06:09:16;29.58;;;14.40;;
65156;SDS011;52745;49.794;18.258;2023-01-19T06:11:43;25.85;;;14.32;;
65156;SDS011;52745;49.794;18.258;2023-01-19T06:14:11;28.60;;;14.32;;
65156;SDS011;52745;49.794;18.258;2023-01-19T06:16:38;25.95;;;13.57;;
65156;SDS011;52745;49.794;18.258;2023-01-19T06:19:05;26.48;;;13.80;;
65156;SDS011;52745;49.794;18.258;2023-01-19T06:21:32;24.90;;;12.30;;
65156;SDS011;52745;49.794;18.258;2023-01-19T06:23:59;27.52;;;13.23;;
65156;SDS011;52745;49.794;18.258;2023-01-19T06:26:26;26.48;;;13.07;;
65156;SDS011;52745;49.794;18.258;2023-01-19T06:28:53;29.25;;;13.55;;
65156;SDS011;52745;49.794;18.258;2023-01-19T06:31:20;27.67;;;14.32;;
65156;SDS011;52745;49.794;18.258;2023-01-19T06:33:47;31.42;;;17.45;;
65156;SDS011;52745;49.794;18.258;2023-01-19T06:36:15;30.25;;;14.45;;
65156;SDS011;52745;49.794;18.258;2023-01-19T06:38:41;32.35;;;16.02;;
65156;SDS011;52745;49.794;18.258;2023-01-19T06:41:08;37.65;;;18.27;;
65156;SDS011;52745;49.794;18.258;2023-01-19T06:43:35;35.92;;;17.33;;
65156;SDS011;52745;49.794;18.258;2023-01-19T06:46:02;43.25;;;21.15;;
65156;SDS011;52745;49.794;18.258;2023-01-19T06:48:30;45.88;;;21.13;;
65156;SDS011;52745;49.794;18.258;2023-01-19T06:50:56;39.70;;;19.70;;
65156;SDS011;52745;49.794;18.258;2023-01-19T06:53:23;37.47;;;18.90;;
65156;SDS011;52745;49.794;18.258;2023-01-19T06:55:52;56.00;;;28.83;;
65156;SDS011;52745;49.794;18.258;2023-01-19T06:58:20;47.38;;;22.38;;
65156;SDS011;52745;49.794;18.258;2023-01-19T07:00:46;46.22;;;22.13;;
65156;SDS011;52745;49.794;18.258;2023-01-19T07:03:19;50.88;;;23.02;;
65156;SDS011;52745;49.794;18.258;2023-01-19T07:05:51;47.60;;;22.92;;
65156;SDS011;52745;49.794;18.258;2023-01-19T07:08:18;50.70;;;24.42;;
65156;SDS011;52745;49.794;18.258;2023-01-19T07:10:46;50.45;;;23.45;;
65156;SDS011;52745;49.794;18.258;2023-01-19T07:13:12;52.60;;;23.55;;
65156;SDS011;52745;49.794;18.258;2023-01-19T07:15:39;50.97;;;23.48;;
65156;SDS011;52745;49.794;18.258;2023-01-19T07:18:07;55.22;;;25.80;;
65156;SDS011;52745;49.794;18.258;2023-01-19T07:20:35;54.95;;;25.10;;
65156;SDS011;52745;49.794;18.258;2023-01-19T07:23:03;55.38;;;23.80;;
65156;SDS011;52745;49.794;18.258;2023-01-19T07:25:29;48.80;;;23.25;;
65156;SDS011;52745;49.794;18.258;2023-01-19T07:27:57;48.00;;;22.17;;
65156;SDS011;52745;49.794;18.258;2023-01-19T07:30:24;53.28;;;23.45;;
65156;SDS011;52745;49.794;18.258;2023-01-19T07:32:55;44.72;;;21.00;;
65156;SDS011;52745;49.794;18.258;2023-01-19T07:35:25;50.47;;;21.98;;
65156;SDS011;52745;49.794;18.258;2023-01-19T07:37:55;52.15;;;22.58;;
65156;SDS011;52745;49.794;18.258;2023-01-19T07:40:22;48.78;;;21.73;;
65156;SDS011;52745;49.794;18.258;2023-01-19T07:42:49;47.50;;;19.83;;
65156;SDS011;52745;49.794;18.258;2023-01-19T07:45:18;48.08;;;19.63;;
65156;SDS011;52745;49.794;18.258;2023-01-19T07:47:48;36.05;;;16.30;;
65156;SDS011;52745;49.794;18.258;2023-01-19T07:50:16;51.72;;;17.17;;
65156;SDS011;52745;49.794;18.258;2023-01-19T07:52:47;36.45;;;16.02;;
65156;SDS011;52745;49.794;18.258;2023-01-19T07:55:17;28.55;;;14.95;;
65156;SDS011;52745;49.794;18.258;2023-01-19T07:57:44;34.53;;;15.40;;
65156;SDS011;52745;49.794;18.258;2023-01-19T08:00:14;33.50;;;15.52;;
65156;SDS011;52745;49.794;18.258;2023-01-19T08:02:41;33.92;;;16.10;;
65156;SDS011;52745;49.794;18.258;2023-01-19T08:05:08;40.92;;;16.02;;
65156;SDS011;52745;49.794;18.258;2023-01-19T08:07:35;33.50;;;15.93;;
65156;SDS011;52745;49.794;18.258;2023-01-19T08:10:02;34.60;;;17.10;;
65156;SDS011;52745;49.794;18.258;2023-01-19T08:12:29;31.13;;;15.07;;
65156;SDS011;52745;49.794;18.258;2023-01-19T08:14:56;37.55;;;15.27;;
65156;SDS011;52745;49.794;18.258;2023-01-19T08:17:23;34.13;;;15.98;;
65156;SDS011;52745;49.794;18.258;2023-01-19T08:19:49;35.72;;;16.50;;
65156;SDS011;52745;49.794;18.258;2023-01-19T08:22:17;30.73;;;15.57;;
65156;SDS011;52745;49.794;18.258;2023-01-19T08:24:43;28.38;;;15.25;;
65156;SDS011;52745;49.794;18.258;2023-01-19T08:27:11;30.02;;;15.05;;
65156;SDS011;52745;49.794;18.258;2023-01-19T08:29:37;33.97;;;16.25;;
65156;SDS011;52745;49.794;18.258;2023-01-19T08:32:04;31.90;;;15.60;;
65156;SDS011;52745;49.794;18.258;2023-01-19T08:34:31;28.55;;;15.57;;
65156;SDS011;52745;49.794;18.258;2023-01-19T08:36:59;29.75;;;15.60;;
65156;SDS011;52745;49.794;18.258;2023-01-19T08:39:25;28.00;;;15.60;;
65156;SDS011;52745;49.794;18.258;2023-01-19T08:41:53;29.55;;;15.57;;
65156;SDS011;52745;49.794;18.258;2023-01-19T08:44:20;32.65;;;16.48;;
65156;SDS011;52745;49.794;18.258;2023-01-19T08:46:47;29.40;;;14.18;;
65156;SDS011;52745;49.794;18.258;2023-01-19T08:49:13;24.48;;;12.50;;
65156;SDS011;52745;49.794;18.258;2023-01-19T08:51:41;34.05;;;16.88;;
65156;SDS011;52745;49.794;18.258;2023-01-19T08:54:11;25.10;;;13.63;;
65156;SDS011;52745;49.794;18.258;2023-01-19T08:56:39;27.17;;;13.48;;
65156;SDS011;52745;49.794;18.258;2023-01-19T08:59:06;25.15;;;13.73;;
65156;SDS011;52745;49.794;18.258;2023-01-19T09:01:33;26.60;;;14.20;;
65156;SDS011;52745;49.794;18.258;2023-01-19T09:03:59;26.58;;;13.15;;
65156;SDS011;52745;49.794;18.258;2023-01-19T09:06:26;25.10;;;13.60;;
65156;SDS011;52745;49.794;18.258;2023-01-19T09:08:53;24.17;;;12.23;;
65156;SDS011;52745;49.794;18.258;2023-01-19T09:11:20;22.50;;;11.88;;
65156;SDS011;52745;49.794;18.258;2023-01-19T09:13:47;24.40;;;12.55;;
65156;SDS011;52745;49.794;18.258;2023-01-19T09:16:14;25.67;;;14.52;;
65156;SDS011;52745;49.794;18.258;2023-01-19T09:18:41;32.85;;;13.77;;
65156;SDS011;52745;49.794;18.258;2023-01-19T09:21:08;25.27;;;13.50;;
65156;SDS011;52745;49.794;18.258;2023-01-19T09:23:35;29.88;;;15.02;;
65156;SDS011;52745;49.794;18.258;2023-01-19T09:26:03;25.30;;;13.55;;
65156;SDS011;52745;49.794;18.258;2023-01-19T09:28:31;26.55;;;13.68;;
65156;SDS011;52745;49.794;18.258;2023-01-19T09:31:02;24.45;;;13.07;;
65156;SDS011;52745;49.794;18.258;2023-01-19T09:33:29;28.17;;;14.10;;
65156;SDS011;52745;49.794;18.258;2023-01-19T09:35:56;32.80;;;16.67;;
65156;SDS011;52745;49.794;18.258;2023-01-19T09:38:23;26.05;;;13.45;;
65156;SDS011;52745;49.794;18.258;2023-01-19T09:40:54;21.85;;;11.45;;
65156;SDS011;52745;49.794;18.258;2023-01-19T09:46:05;21.15;;;11.23;;
65156;SDS011;52745;49.794;18.258;2023-01-19T09:51:13;16.50;;;8.73;;
65156;SDS011;52745;49.794;18.258;2023-01-19T09:56:13;22.88;;;10.40;;
65156;SDS011;52745;49.794;18.258;2023-01-19T09:58:42;18.48;;;10.35;;
65156;SDS011;52745;49.794;18.258;2023-01-19T10:01:22;16.92;;;9.63;;
65156;SDS011;52745;49.794;18.258;2023-01-19T10:04:26;22.70;;;10.00;;
65156;SDS011;52745;49.794;18.258;2023-01-19T10:07:05;24.08;;;10.27;;
65156;SDS011;52745;49.794;18.258;2023-01-19T10:20:47;26.80;;;14.77;;
65156;SDS011;52745;49.794;18.258;2023-01-19T10:26:33;15.90;;;9.45;;
65156;SDS011;52745;49.794;18.258;2023-01-19T10:29:04;20.70;;;10.82;;
65156;SDS011;52745;49.794;18.258;2023-01-19T10:31:33;19.88;;;10.82;;
65156;SDS011;52745;49.794;18.258;2023-01-19T10:34:03;20.10;;;11.50;;
65156;SDS011;52745;49.794;18.258;2023-01-19T10:36:33;21.58;;;11.07;;
65156;SDS011;52745;49.794;18.258;2023-01-19T10:39:03;20.58;;;11.23;;
65156;SDS011;52745;49.794;18.258;2023-01-19T10:41:39;25.42;;;13.13;;
65156;SDS011;52745;49.794;18.258;2023-01-19T10:44:07;24.42;;;12.00;;
65156;SDS011;52745;49.794;18.258;2023-01-19T10:49:26;20.58;;;10.52;;
65156;SDS011;52745;49.794;18.258;2023-01-19T10:52:17;22.58;;;10.80;;
65156;SDS011;52745;49.794;18.258;2023-01-19T10:54:48;18.55;;;9.70;;
65156;SDS011;52745;49.794;18.258;2023-01-19T10:57:21;25.20;;;11.10;;
65156;SDS011;52745;49.794;18.258;2023-01-19T10:59:53;22.13;;;11.25;;
65156;SDS011;52745;49.794;18.258;2023-01-19T11:02:27;23.65;;;11.05;;
65156;SDS011;52745;49.794;18.258;2023-01-19T11:04:56;22.27;;;11.10;;
65156;SDS011;52745;49.794;18.258;2023-01-19T11:10:10;18.17;;;9.68;;
65156;SDS011;52745;49.794;18.258;2023-01-19T11:12:52;24.50;;;11.25;;
65156;SDS011;52745;49.794;18.258;2023-01-19T11:15:27;25.65;;;11.93;;
65156;SDS011;52745;49.794;18.258;2023-01-19T11:17:54;23.02;;;11.73;;
65156;SDS011;52745;49.794;18.258;2023-01-19T11:20:23;25.40;;;11.50;;
65156;SDS011;52745;49.794;18.258;2023-01-19T11:23:06;20.95;;;10.40;;
65156;SDS011;52745;49.794;18.258;2023-01-19T11:25:45;21.90;;;11.23;;
65156;SDS011;52745;49.794;18.258;2023-01-19T11:28:19;23.60;;;12.57;;
65156;SDS011;52745;49.794;18.258;2023-01-19T11:30:58;21.00;;;10.68;;
65156;SDS011;52745;49.794;18.258;2023-01-19T11:33:42;20.73;;;10.60;;
65156;SDS011;52745;49.794;18.258;2023-01-19T11:36:14;23.30;;;12.23;;
65156;SDS011;52745;49.794;18.258;2023-01-19T11:38:43;26.42;;;12.82;;
65156;SDS011;52745;49.794;18.258;2023-01-19T11:41:21;22.67;;;11.02;;
65156;SDS011;52745;49.794;18.258;2023-01-19T11:43:49;24.00;;;12.18;;
65156;SDS011;52745;49.794;18.258;2023-01-19T11:46:19;24.77;;;12.43;;
65156;SDS011;52745;49.794;18.258;2023-01-19T11:48:52;23.75;;;11.75;;
65156;SDS011;52745;49.794;18.258;2023-01-19T11:51:27;29.35;;;12.18;;
65156;SDS011;52745;49.794;18.258;2023-01-19T11:54:11;22.83;;;11.52;;
65156;SDS011;52745;49.794;18.258;2023-01-19T11:56:46;25.10;;;12.48;;
65156;SDS011;52745;49.794;18.258;2023-01-19T11:59:14;36.50;;;15.82;;
65156;SDS011;52745;49.794;18.258;2023-01-19T12:01:50;25.00;;;12.98;;
65156;SDS011;52745;49.794;18.258;2023-01-19T12:04:29;22.55;;;10.88;;
65156;SDS011;52745;49.794;18.258;2023-01-19T12:07:03;23.27;;;11.43;;
65156;SDS011;52745;49.794;18.258;2023-01-19T12:09:38;22.00;;;10.93;;
65156;SDS011;52745;49.794;18.258;2023-01-19T12:17:44;23.33;;;10.68;;
65156;SDS011;52745;49.794;18.258;2023-01-19T12:20:27;24.13;;;11.05;;
65156;SDS011;52745;49.794;18.258;2023-01-19T12:25:36;22.50;;;11.63;;
65156;SDS011;52745;49.794;18.258;2023-01-19T12:28:11;26.92;;;11.57;;
65156;SDS011;52745;49.794;18.258;2023-01-19T12:30:40;22.45;;;11.85;;
65156;SDS011;52745;49.794;18.258;2023-01-19T12:38:39;29.13;;;12.10;;
65156;SDS011;52745;49.794;18.258;2023-01-19T12:41:17;26.27;;;12.40;;
65156;SDS011;52745;49.794;18.258;2023-01-19T12:43:47;28.95;;;12.57;;
65156;SDS011;52745;49.794;18.258;2023-01-19T12:46:34;30.77;;;12.95;;
65156;SDS011;52745;49.794;18.258;2023-01-19T12:49:06;23.92;;;12.20;;
65156;SDS011;52745;49.794;18.258;2023-01-19T12:51:43;27.05;;;12.45;;
65156;SDS011;52745;49.794;18.258;2023-01-19T12:54:17;24.52;;;12.10;;
65156;SDS011;52745;49.794;18.258;2023-01-19T12:56:54;28.00;;;14.07;;
65156;SDS011;52745;49.794;18.258;2023-01-19T12:59:24;30.45;;;14.27;;
65156;SDS011;52745;49.794;18.258;2023-01-19T13:13:20;28.35;;;15.02;;
65156;SDS011;52745;49.794;18.258;2023-01-19T13:15:48;32.42;;;14.45;;
65156;SDS011;52745;49.794;18.258;2023-01-19T13:18:16;32.33;;;15.32;;
65156;SDS011;52745;49.794;18.258;2023-01-19T13:20:51;28.55;;;13.85;;
65156;SDS011;52745;49.794;18.258;2023-01-19T13:23:25;29.60;;;14.25;;
65156;SDS011;52745;49.794;18.258;2023-01-19T13:26:00;30.55;;;13.98;;
65156;SDS011;52745;49.794;18.258;2023-01-19T13:28:45;28.02;;;14.57;;
65156;SDS011;52745;49.794;18.258;2023-01-19T13:31:15;33.67;;;15.43;;
65156;SDS011;52745;49.794;18.258;2023-01-19T13:36:23;31.85;;;14.80;;
65156;SDS011;52745;49.794;18.258;2023-01-19T13:38:51;29.08;;;13.90;;
65156;SDS011;52745;49.794;18.258;2023-01-19T13:41:22;32.17;;;15.80;;
65156;SDS011;52745;49.794;18.258;2023-01-19T13:46:46;30.35;;;14.13;;
65156;SDS011;52745;49.794;18.258;2023-01-19T13:49:18;30.48;;;13.90;;
65156;SDS011;52745;49.794;18.258;2023-01-19T13:52:10;27.08;;;14.43;;
65156;SDS011;52745;49.794;18.258;2023-01-19T13:54:46;30.77;;;13.70;;
65156;SDS011;52745;49.794;18.258;2023-01-19T13:57:30;27.00;;;13.55;;
65156;SDS011;52745;49.794;18.258;2023-01-19T14:02:50;32.90;;;16.67;;
65156;SDS011;52745;49.794;18.258;2023-01-19T14:10:27;26.83;;;13.88;;
65156;SDS011;52745;49.794;18.258;2023-01-19T14:12:57;30.35;;;13.25;;
65156;SDS011;52745;49.794;18.258;2023-01-19T14:15:29;29.10;;;14.43;;
65156;SDS011;52745;49.794;18.258;2023-01-19T14:20:54;27.67;;;13.45;;
65156;SDS011;52745;49.794;18.258;2023-01-19T14:31:42;20.88;;;10.93;;
65156;SDS011;52745;49.794;18.258;2023-01-19T14:34:37;21.95;;;11.07;;
65156;SDS011;52745;49.794;18.258;2023-01-19T14:37:26;21.15;;;11.00;;
65156;SDS011;52745;49.794;18.258;2023-01-19T14:40:12;23.02;;;11.63;;
65156;SDS011;52745;49.794;18.258;2023-01-19T14:42:44;23.35;;;11.05;;
65156;SDS011;52745;49.794;18.258;2023-01-19T14:45:25;21.77;;;11.20;;
65156;SDS011;52745;49.794;18.258;2023-01-19T14:48:03;20.90;;;10.35;;
65156;SDS011;52745;49.794;18.258;2023-01-19T14:50:36;22.65;;;11.63;;
65156;SDS011;52745;49.794;18.258;2023-01-19T14:53:06;22.65;;;10.88;;
65156;SDS011;52745;49.794;18.258;2023-01-19T14:56:15;23.45;;;11.23;;
65156;SDS011;52745;49.794;18.258;2023-01-19T14:58:34;20.05;;;9.98;;
65156;SDS011;52745;49.794;18.258;2023-01-19T15:01:01;21.92;;;9.95;;
65156;SDS011;52745;49.794;18.258;2023-01-19T15:03:28;19.20;;;10.05;;
65156;SDS011;52745;49.794;18.258;2023-01-19T15:05:57;20.08;;;10.45;;
65156;SDS011;52745;49.794;18.258;2023-01-19T15:08:27;19.95;;;11.05;;
65156;SDS011;52745;49.794;18.258;2023-01-19T15:10:56;54.90;;;26.38;;
65156;SDS011;52745;49.794;18.258;2023-01-19T15:13:24;24.08;;;13.35;;
65156;SDS011;52745;49.794;18.258;2023-01-19T15:15:52;22.00;;;10.25;;
65156;SDS011;52745;49.794;18.258;2023-01-19T15:18:20;20.15;;;10.27;;
65156;SDS011;52745;49.794;18.258;2023-01-19T15:20:51;19.75;;;9.52;;
65156;SDS011;52745;49.794;18.258;2023-01-19T15:23:20;19.52;;;10.20;;
65156;SDS011;52745;49.794;18.258;2023-01-19T15:25:47;20.65;;;10.57;;
65156;SDS011;52745;49.794;18.258;2023-01-19T15:28:16;20.35;;;10.15;;
65156;SDS011;52745;49.794;18.258;2023-01-19T15:30:44;21.50;;;11.30;;
65156;SDS011;52745;49.794;18.258;2023-01-19T15:33:13;23.00;;;10.88;;
65156;SDS011;52745;49.794;18.258;2023-01-19T15:35:51;20.10;;;9.80;;
65156;SDS011;52745;49.794;18.258;2023-01-19T15:38:18;21.63;;;10.13;;
65156;SDS011;52745;49.794;18.258;2023-01-19T15:40:46;20.25;;;10.43;;
65156;SDS011;52745;49.794;18.258;2023-01-19T15:43:13;19.98;;;10.13;;
65156;SDS011;52745;49.794;18.258;2023-01-19T15:45:40;21.55;;;10.18;;
65156;SDS011;52745;49.794;18.258;2023-01-19T15:48:13;21.83;;;11.13;;
65156;SDS011;52745;49.794;18.258;2023-01-19T15:50:41;21.90;;;10.93;;
65156;SDS011;52745;49.794;18.258;2023-01-19T15:53:11;21.65;;;10.25;;